Time;durP1;ratioP1;P1;durP2;ratioP2;P2;SDS_P1;SDS_P2;PMS_P1;PMS_P2;Temp;Humidity;BMP_temperature;BMP_pressure;BME280_temperature;BME280_humidity;BME280_pressure;Samples;Min_cycle;Max_cycle;Signal;HPM_P1;HPM_P2
2023/09/09 00:01:35;;;;;;;19.80;14.27;;;;;;;17.13;100.00;100803.72;5096341;28;20107;-74
2023/09/09 00:04:02;;;;;;;21.95;14.57;;;;;;;17.06;100.00;100813.72;5114559;28;20016;-76
2023/09/09 00:06:29;;;;;;;18.38;13.65;;;;;;;16.95;100.00;100820.28;5113278;28;20031;-74
2023/09/09 00:08:56;;;;;;;16.98;13.57;;;;;;;16.89;100.00;100818.72;5114357;28;20026;-75
2023/09/09 00:11:21;;;;;;;21.52;13.52;;;;;;;16.84;100.00;100811.63;5114200;28;20024;-75
2023/09/09 00:13:48;;;;;;;21.88;13.77;;;;;;;16.83;100.00;100812.16;5113122;28;20023;-75
2023/09/09 00:16:15;;;;;;;20.90;13.52;;;;;;;16.83;100.00;100817.91;5114512;28;20076;-74
2023/09/09 00:18:42;;;;;;;21.85;13.93;;;;;;;16.81;100.00;100815.53;5114599;28;20429;-75
2023/09/09 00:21:08;;;;;;;20.75;12.77;;;;;;;16.82;100.00;100814.25;5114284;28;20019;-73
2023/09/09 00:23:35;;;;;;;26.70;14.70;;;;;;;16.80;100.00;100807.41;5114140;28;20027;-75
2023/09/09 00:26:02;;;;;;;26.42;14.10;;;;;;;16.77;100.00;100806.38;5112995;28;20024;-74
2023/09/09 00:28:30;;;;;;;23.13;13.88;;;;;;;16.71;100.00;100804.78;5112896;28;20074;-75
2023/09/09 00:30:57;;;;;;;21.13;14.55;;;;;;;16.68;100.00;100795.09;5114040;28;20133;-74
2023/09/09 00:33:22;;;;;;;21.58;15.30;;;;;;;16.73;100.00;100805.06;5114063;28;20027;-75
2023/09/09 00:35:47;;;;;;;20.70;14.40;;;;;;;16.67;100.00;100802.16;5095733;28;20398;-75
2023/09/09 00:38:14;;;;;;;22.30;15.98;;;;;;;16.59;100.00;100801.13;5114068;28;20034;-76
2023/09/09 00:41:10;;;;;;;31.52;16.77;;;;;;;16.63;100.00;100798.75;5114021;28;20055;-74
2023/09/09 00:43:39;;;;;;;19.60;14.52;;;;;;;16.59;100.00;100806.88;5113682;28;20043;-75
2023/09/09 00:46:08;;;;;;;21.25;15.13;;;;;;;16.57;100.00;100809.50;5113747;28;20019;-73
2023/09/09 00:48:36;;;;;;;22.55;14.70;;;;;;;16.54;100.00;100807.66;5095576;28;20035;-74
2023/09/09 00:51:11;;;;;;;25.05;15.07;;;;;;;16.51;100.00;100811.53;5113424;28;20026;-74
2023/09/09 00:53:46;;;;;;;19.38;14.35;;;;;;;16.49;100.00;100814.19;5113923;28;20442;-75
2023/09/09 00:56:11;;;;;;;24.85;15.70;;;;;;;16.46;100.00;100816.00;5112844;28;20028;-75
2023/09/09 00:58:37;;;;;;;21.20;14.13;;;;;;;16.45;100.00;100820.19;5111985;28;20050;-74
2023/09/09 01:01:05;;;;;;;18.95;15.50;;;;;;;16.38;100.00;100811.28;5112358;28;20072;-73
2023/09/09 01:03:32;;;;;;;19.90;15.07;;;;;;;16.39;100.00;100818.63;5113907;28;20023;-74
2023/09/09 01:05:59;;;;;;;22.45;16.10;;;;;;;16.34;100.00;100820.19;5113984;28;20468;-74
2023/09/09 01:08:26;;;;;;;25.55;16.08;;;;;;;16.31;100.00;100814.66;5112591;28;20357;-75
2023/09/09 01:10:53;;;;;;;24.98;15.98;;;;;;;16.28;100.00;100816.50;5112439;28;20099;-74
2023/09/09 01:13:19;;;;;;;27.20;16.45;;;;;;;16.26;100.00;100818.31;5113458;28;20472;-74
2023/09/09 01:15:45;;;;;;;23.15;16.50;;;;;;;16.21;100.00;100819.88;5113004;28;20023;-74
2023/09/09 01:18:19;;;;;;;24.40;17.20;;;;;;;16.19;100.00;100815.94;5111358;28;20107;-73
2023/09/09 01:21:13;;;;;;;21.63;15.60;;;;;;;16.17;100.00;100828.00;5110936;28;20058;-73
2023/09/09 01:23:51;;;;;;;24.27;16.35;;;;;;;16.13;100.00;100828.25;5102323;28;20036;-75
2023/09/09 01:26:17;;;;;;;24.33;17.40;;;;;;;16.11;100.00;100815.66;5111011;28;20055;-75
2023/09/09 01:28:45;;;;;;;26.35;16.85;;;;;;;16.05;100.00;100809.88;5110270;28;20079;-74
2023/09/09 01:31:12;;;;;;;23.13;14.88;;;;;;;16.03;100.00;100818.25;5112181;28;20024;-74
2023/09/09 01:33:39;;;;;;;21.80;16.33;;;;;;;15.99;100.00;100817.72;5112678;28;20375;-74
2023/09/09 01:36:11;;;;;;;28.20;16.42;;;;;;;15.99;100.00;100825.59;5112406;28;20028;-74
2023/09/09 01:39:11;;;;;;;22.58;16.40;;;;;;;15.95;100.00;100828.72;5112594;28;20034;-75
2023/09/09 01:41:39;;;;;;;21.70;16.20;;;;;;;15.91;100.00;100824.50;5111311;28;20059;-75
2023/09/09 01:44:13;;;;;;;22.95;15.35;;;;;;;15.88;100.00;100829.19;5112380;28;20032;-76
2023/09/09 01:46:50;;;;;;;25.92;15.00;;;;;;;15.85;100.00;100829.47;5111933;28;20503;-74
2023/09/09 01:49:16;;;;;;;24.27;15.63;;;;;;;15.81;100.00;100835.44;5112454;28;20043;-74
2023/09/09 01:51:41;;;;;;;22.67;16.95;;;;;;;15.73;100.00;100825.72;5113453;28;20034;-74
2023/09/09 01:54:06;;;;;;;20.95;15.95;;;;;;;15.78;100.00;100829.94;5113304;28;20031;-75
2023/09/09 01:56:33;;;;;;;21.48;16.40;;;;;;;15.69;100.00;100828.84;5113222;28;20406;-74
2023/09/09 01:58:59;;;;;;;26.63;17.13;;;;;;;15.77;100.00;100828.34;5111876;28;20023;-74
2023/09/09 02:01:25;;;;;;;25.95;16.42;;;;;;;15.72;100.00;100837.75;5112012;28;20024;-76
2023/09/09 02:03:51;;;;;;;26.33;16.88;;;;;;;15.68;100.00;100835.13;5116320;28;20032;-74
2023/09/09 02:06:17;;;;;;;21.67;15.77;;;;;;;15.62;100.00;100837.19;5116726;28;20035;-75
2023/09/09 02:08:44;;;;;;;23.27;16.85;;;;;;;15.64;100.00;100838.25;5115556;28;20032;-74
2023/09/09 02:11:12;;;;;;;23.48;16.75;;;;;;;15.67;100.00;100833.53;5116761;28;20062;-75
2023/09/09 02:13:38;;;;;;;26.60;17.98;;;;;;;15.68;100.00;100838.78;5116689;28;20180;-74
2023/09/09 02:16:08;;;;;;;24.20;15.40;;;;;;;15.72;100.00;100837.75;5116621;28;20507;-74
2023/09/09 02:18:39;;;;;;;25.02;16.08;;;;;;;15.71;100.00;100837.00;5115436;28;20039;-74
2023/09/09 02:21:06;;;;;;;22.33;15.52;;;;;;;15.71;100.00;100839.88;5116609;28;20020;-74
2023/09/09 02:23:34;;;;;;;26.15;17.30;;;;;;;15.70;100.00;100844.06;5116645;28;20024;-75
2023/09/09 02:26:00;;;;;;;21.25;16.30;;;;;;;15.67;100.00;100848.75;5116925;28;20032;-75
2023/09/09 02:28:27;;;;;;;20.42;15.73;;;;;;;15.65;100.00;100844.81;5115032;28;20040;-74
2023/09/09 02:30:52;;;;;;;24.17;17.40;;;;;;;15.54;100.00;100833.19;5116351;28;20023;-75
2023/09/09 02:33:18;;;;;;;22.48;16.17;;;;;;;15.58;100.00;100846.03;5116330;28;20023;-75
2023/09/09 02:35:45;;;;;;;20.75;15.73;;;;;;;15.56;100.00;100842.13;5116558;27;20388;-73
2023/09/09 02:38:12;;;;;;;22.73;16.42;;;;;;;15.56;100.00;100847.88;5116517;27;20379;-75
2023/09/09 02:40:37;;;;;;;23.73;15.45;;;;;;;15.54;100.00;100847.59;5116314;28;20035;-75
2023/09/09 02:43:05;;;;;;;22.00;15.32;;;;;;;15.53;100.00;100840.25;5115759;28;20357;-74
2023/09/09 02:45:31;;;;;;;23.85;16.63;;;;;;;15.39;100.00;100824.72;5116156;28;20028;-75
2023/09/09 02:47:59;;;;;;;21.88;15.80;;;;;;;15.50;100.00;100849.94;5116404;28;20086;-74
2023/09/09 02:50:25;;;;;;;23.50;15.38;;;;;;;15.48;100.00;100849.63;5116031;27;20031;-74
2023/09/09 02:52:52;;;;;;;21.90;16.52;;;;;;;15.48;100.00;100843.88;5114775;28;20034;-75
2023/09/09 02:55:18;;;;;;;20.73;16.35;;;;;;;15.46;100.00;100843.63;5131281;27;20127;-73
2023/09/09 02:57:48;;;;;;;23.15;15.68;;;;;;;15.42;100.00;100831.53;5115929;27;20027;-74
2023/09/09 03:00:15;;;;;;;23.55;16.10;;;;;;;15.41;100.00;100839.41;5114522;28;20475;-76
2023/09/09 03:02:42;;;;;;;22.90;15.85;;;;;;;15.40;100.00;100848.56;5114442;28;20024;-75
2023/09/09 03:05:10;;;;;;;25.15;17.17;;;;;;;15.37;100.00;100840.91;5115710;28;20027;-74
2023/09/09 03:07:36;;;;;;;20.08;15.35;;;;;;;15.33;100.00;100841.16;5115810;28;20114;-74
2023/09/09 03:10:03;;;;;;;23.55;16.08;;;;;;;15.31;100.00;100843.00;5114273;28;20111;-74
2023/09/09 03:12:30;;;;;;;26.95;16.42;;;;;;;15.28;100.00;100845.59;5115342;28;20156;-75
2023/09/09 03:14:57;;;;;;;21.05;14.63;;;;;;;15.27;100.00;100835.38;5114947;27;20030;-74
2023/09/09 03:17:28;;;;;;;20.80;15.73;;;;;;;15.24;100.00;100838.50;5115714;28;20066;-76
2023/09/09 03:19:54;;;;;;;23.70;16.13;;;;;;;15.19;100.00;100845.78;5114407;28;20016;-74
2023/09/09 03:22:20;;;;;;;22.17;16.73;;;;;;;15.20;100.00;100838.72;5113683;28;20092;-73
2023/09/09 03:24:47;;;;;;;23.92;16.10;;;;;;;15.17;100.00;100842.63;5115450;28;20187;-75
2023/09/09 03:27:13;;;;;;;24.30;16.98;;;;;;;15.15;100.00;100845.25;5115500;28;20497;-73
2023/09/09 03:29:39;;;;;;;22.27;16.05;;;;;;;15.10;100.00;100840.22;5097111;28;20500;-75
2023/09/09 03:32:05;;;;;;;19.30;15.30;;;;;;;15.11;100.00;100838.94;5115229;28;20047;-74
2023/09/09 03:34:32;;;;;;;22.63;16.02;;;;;;;15.05;100.00;100845.94;5097087;28;20041;-74
2023/09/09 03:36:57;;;;;;;26.88;16.75;;;;;;;15.04;100.00;100847.22;5115251;28;20506;-76
2023/09/09 03:39:23;;;;;;;25.70;16.98;;;;;;;15.02;100.00;100855.59;5114855;27;20023;-73
2023/09/09 03:41:48;;;;;;;23.00;16.20;;;;;;;15.01;100.00;100856.91;5114750;28;20087;-75
2023/09/09 03:44:15;;;;;;;22.20;15.73;;;;;;;14.98;100.00;100861.56;5115238;28;20051;-74
2023/09/09 03:46:41;;;;;;;22.42;16.02;;;;;;;14.97;100.00;100860.00;5096628;28;20139;-74
2023/09/09 03:49:07;;;;;;;22.58;16.30;;;;;;;14.94;100.00;100851.59;5114627;28;20036;-73
2023/09/09 03:51:32;;;;;;;27.30;17.75;;;;;;;14.95;100.00;100853.19;5113697;28;20038;-75
2023/09/09 03:54:00;;;;;;;56.35;24.80;;;;;;;14.88;100.00;100845.00;5114765;28;20024;-75
2023/09/09 03:56:27;;;;;;;30.77;18.95;;;;;;;14.91;100.00;100853.41;5113391;28;20460;-74
2023/09/09 03:58:54;;;;;;;27.92;16.52;;;;;;;14.89;100.00;100853.13;5113619;28;20123;-73
2023/09/09 04:01:20;;;;;;;26.17;16.60;;;;;;;14.89;100.00;100856.00;5114571;28;20032;-75
2023/09/09 04:03:45;;;;;;;23.80;16.63;;;;;;;14.89;100.00;100860.97;5114635;28;20035;-73
2023/09/09 04:06:12;;;;;;;23.17;15.35;;;;;;;14.88;100.00;100856.50;5114414;28;20039;-74
2023/09/09 04:08:38;;;;;;;25.00;16.65;;;;;;;14.88;100.00;100856.50;5114547;28;20080;-74
2023/09/09 04:11:05;;;;;;;25.02;16.58;;;;;;;14.87;100.00;100858.63;5113431;28;20034;-73
2023/09/09 04:13:31;;;;;;;24.15;15.93;;;;;;;14.88;100.00;100853.63;5114599;28;20023;-75
2023/09/09 04:15:57;;;;;;;24.38;17.67;;;;;;;14.88;100.00;100857.28;5113149;28;20068;-75
2023/09/09 04:18:25;;;;;;;27.92;17.33;;;;;;;14.87;100.00;100858.63;5114253;28;20023;-75
2023/09/09 04:20:53;;;;;;;24.90;16.98;;;;;;;14.87;100.00;100852.88;5112999;28;20102;-73
2023/09/09 04:23:19;;;;;;;22.60;17.50;;;;;;;14.87;100.00;100855.75;5114274;27;20065;-75
2023/09/09 04:25:46;;;;;;;25.02;17.38;;;;;;;14.87;100.00;100864.38;5113391;28;20043;-75
2023/09/09 04:28:13;;;;;;;20.88;16.60;;;;;;;14.87;100.00;100864.38;5095960;28;20031;-75
2023/09/09 04:30:39;;;;;;;23.08;16.73;;;;;;;14.87;100.00;100861.50;5096023;28;20084;-75
2023/09/09 04:33:07;;;;;;;24.52;17.08;;;;;;;14.86;100.00;100854.16;5113905;28;20021;-75
2023/09/09 04:35:34;;;;;;;28.38;16.88;;;;;;;14.89;100.00;100858.09;5114060;28;20481;-74
2023/09/09 04:38:03;;;;;;;24.42;16.52;;;;;;;14.90;100.00;100865.44;5113786;28;20122;-73
2023/09/09 04:40:29;;;;;;;24.35;16.92;;;;;;;14.93;100.00;100873.03;5113927;28;20465;-75
2023/09/09 04:42:58;;;;;;;23.02;16.70;;;;;;;14.95;100.00;100873.31;5113893;28;20088;-75
2023/09/09 04:45:23;;;;;;;23.25;16.02;;;;;;;14.95;100.00;100871.25;5114026;28;20441;-74
2023/09/09 04:47:51;;;;;;;24.63;18.15;;;;;;;14.88;100.00;100860.16;5113980;28;20043;-75
2023/09/09 04:50:18;;;;;;;25.30;17.80;;;;;;;14.92;100.00;100872.25;5113618;28;20483;-74
2023/09/09 04:52:44;;;;;;;26.38;16.85;;;;;;;14.92;100.00;100862.84;5095645;28;20079;-75
2023/09/09 04:55:10;;;;;;;28.25;18.15;;;;;;;14.94;100.00;100857.34;5113885;28;20027;-75
2023/09/09 04:57:38;;;;;;;23.05;17.13;;;;;;;15.02;100.00;100873.63;5111981;28;20388;-75
2023/09/09 05:00:07;;;;;;;26.30;16.42;;;;;;;15.04;100.00;100870.25;5112490;28;20459;-75
2023/09/09 05:02:34;;;;;;;24.08;17.25;;;;;;;15.08;100.00;100873.69;5114070;28;20039;-74
2023/09/09 05:05:08;;;;;;;27.80;17.42;;;;;;;15.05;100.00;100866.88;5095479;28;20027;-75
2023/09/09 05:07:36;;;;;;;25.88;17.90;;;;;;;15.21;100.00;100877.75;5113600;28;20023;-75
2023/09/09 05:10:06;;;;;;;22.63;16.60;;;;;;;15.28;100.00;100873.59;5095615;28;20043;-75
2023/09/09 05:12:40;;;;;;;19.17;15.68;;;;;;;15.32;100.00;100877.03;5095534;28;20353;-74
2023/09/09 05:15:07;;;;;;;28.98;17.73;;;;;;;15.43;100.00;100879.19;5112994;28;20024;-74
2023/09/09 05:17:39;;;;;;;29.00;18.00;;;;;;;15.24;100.00;100855.75;5112343;28;20088;-76
2023/09/09 05:20:05;;;;;;;24.73;17.52;;;;;;;15.35;100.00;100878.88;5111258;28;20027;-75
2023/09/09 05:22:53;;;;;;;23.25;16.70;;;;;;;15.42;100.00;100883.38;5111472;28;20027;-74
2023/09/09 05:25:24;;;;;;;23.02;16.73;;;;;;;15.39;100.00;100882.31;5112395;28;20497;-75
2023/09/09 05:27:50;;;;;;;24.15;17.10;;;;;;;15.47;100.00;100885.50;5112171;28;20123;-75
2023/09/09 05:30:16;;;;;;;20.67;16.45;;;;;;;15.46;100.00;100887.63;5113219;28;20076;-77
2023/09/09 05:32:42;;;;;;;21.52;16.25;;;;;;;15.49;100.00;100885.78;5113858;28;20034;-77
2023/09/09 05:35:10;;;;;;;27.88;18.17;;;;;;;15.44;100.00;100887.34;5113786;28;20055;-79
2023/09/09 05:37:36;;;;;;;20.17;15.70;;;;;;;15.50;100.00;100888.16;5114958;28;20028;-78
2023/09/09 05:40:03;;;;;;;25.00;17.60;;;;;;;15.59;100.00;100888.00;5117466;28;20099;-74
2023/09/09 05:42:29;;;;;;;23.50;17.63;;;;;;;15.56;100.00;100873.81;5117035;28;20043;-77
2023/09/09 05:44:54;;;;;;;26.52;18.30;;;;;;;15.73;100.00;100892.00;5116270;28;20040;-79
2023/09/09 05:47:20;;;;;;;25.02;17.85;;;;;;;15.82;100.00;100891.00;5117548;28;20042;-73
2023/09/09 05:49:49;;;;;;;25.73;17.20;;;;;;;15.96;100.00;100890.81;5098886;28;20080;-74
2023/09/09 05:52:16;;;;;;;21.38;17.20;;;;;;;16.12;100.00;100895.88;5117103;28;20118;-73
2023/09/09 05:54:42;;;;;;;25.48;17.58;;;;;;;16.27;100.00;100889.91;5115866;28;20422;-75
2023/09/09 05:57:08;;;;;;;24.25;16.38;;;;;;;16.40;100.00;100886.56;5105235;28;20476;-74
2023/09/09 05:59:35;;;;;;;23.75;17.30;;;;;;;16.59;100.00;100884.00;5117139;28;20372;-74
2023/09/09 06:02:01;;;;;;;25.50;17.77;;;;;;;16.60;100.00;100871.16;5117151;28;20031;-74
2023/09/09 06:04:27;;;;;;;28.17;16.98;;;;;;;16.84;100.00;100885.91;5115734;28;20119;-74
2023/09/09 06:06:53;;;;;;;24.95;17.60;;;;;;;16.99;100.00;100886.44;5115884;28;20099;-75
2023/09/09 06:09:21;;;;;;;24.63;17.50;;;;;;;17.16;100.00;100884.31;5098790;28;20032;-74
2023/09/09 06:11:48;;;;;;;20.40;16.83;;;;;;;17.33;100.00;100890.13;5116845;28;20027;-76
2023/09/09 06:14:13;;;;;;;21.98;17.15;;;;;;;17.43;100.00;100876.97;5116294;28;20049;-74
2023/09/09 06:16:40;;;;;;;18.67;14.38;;;;;;;17.82;100.00;100885.59;5115572;28;20043;-76
2023/09/09 06:19:08;;;;;;;18.83;13.02;;;;;;;18.49;100.00;100889.03;5115777;28;20034;-74
2023/09/09 06:21:33;;;;;;;17.95;12.88;;;;;;;19.53;100.00;100883.00;5116511;28;20143;-74
2023/09/09 06:24:08;;;;;;;17.88;12.25;;;;;;;20.72;100.00;100867.34;5115316;28;20052;-74
2023/09/09 06:26:35;;;;;;;14.70;12.38;;;;;;;22.01;100.00;100855.03;5115548;28;20023;-74
2023/09/09 06:29:01;;;;;;;15.82;11.82;;;;;;;23.03;100.00;100854.38;5098410;28;20413;-74
2023/09/09 06:31:28;;;;;;;16.92;12.52;;;;;;;23.99;100.00;100840.41;5115721;28;20076;-76
2023/09/09 06:33:58;;;;;;;15.18;12.50;;;;;;;24.77;100.00;100834.31;5115377;28;20080;-79
2023/09/09 06:36:24;;;;;;;18.33;11.30;;;;;;;25.42;100.00;100823.88;5115559;28;20028;-77
2023/09/09 06:38:50;;;;;;;16.17;12.77;;;;;;;26.14;100.00;100823.41;5116904;28;20023;-75
2023/09/09 06:41:18;;;;;;;13.48;11.82;;;;;;;26.92;100.00;100821.09;5098059;28;20032;-78
2023/09/09 06:43:44;;;;;;;13.32;11.77;;;;;;;27.84;100.00;100827.78;5116258;28;20049;-78
2023/09/09 06:46:10;;;;;;;17.02;11.88;;;;;;;28.50;100.00;100834.13;5116749;28;20057;-76
2023/09/09 06:48:38;;;;;;;14.23;10.77;;;;;;;28.92;100.00;100828.84;5115532;28;20522;-78
2023/09/09 06:51:04;;;;;;;14.32;11.80;;;;;;;28.93;100.00;100826.66;5115906;28;20467;-80
2023/09/09 06:53:30;;;;;;;13.60;11.98;;;;;;;28.76;100.00;100842.97;5114650;28;20515;-76
2023/09/09 06:55:59;;;;;;;13.70;11.30;;;;;;;29.26;100.00;100837.53;5116113;28;20115;-77
2023/09/09 06:58:24;;;;;;;12.82;10.60;;;;;;;29.83;100.00;100839.13;5116417;28;20035;-76
2023/09/09 07:00:52;;;;;;;11.80;10.60;;;;;;;30.47;100.00;100834.53;5116281;28;20024;-76
2023/09/09 07:03:21;;;;;;;12.25;10.93;;;;;;;31.17;100.00;100840.47;5097942;28;20118;-77
2023/09/09 07:05:47;;;;;;;11.90;10.73;;;;;;;31.34;100.00;100838.09;5114756;28;20030;-78
2023/09/09 07:08:14;;;;;;;13.50;10.93;;;;;;;31.51;98.26;100828.19;5116139;28;20024;-77
2023/09/09 07:10:51;;;;;;;15.20;10.75;;;;;;;31.75;95.66;100832.13;5115951;28;20100;-75
2023/09/09 07:13:18;;;;;;;11.38;9.98;;;;;;;31.95;89.62;100830.59;5115823;28;20535;-78
2023/09/09 07:15:45;;;;;;;13.15;10.88;;;;;;;32.14;92.21;100824.53;5116040;28;20024;-76
2023/09/09 07:18:11;;;;;;;14.15;11.15;;;;;;;32.27;88.52;100822.44;5115634;28;20031;-77
2023/09/09 07:20:38;;;;;;;11.02;9.75;;;;;;;32.64;87.54;100832.34;5114280;28;20016;-75
2023/09/09 07:23:04;;;;;;;13.90;10.30;;;;;;;32.54;85.03;100834.63;5114569;28;20098;-78
2023/09/09 07:25:32;;;;;;;11.50;9.32;;;;;;;32.57;86.77;100822.31;5115319;28;20039;-77
2023/09/09 07:28:00;;;;;;;15.52;9.65;;;;;;;32.79;84.41;100831.91;5115431;28;20031;-74
2023/09/09 07:30:27;;;;;;;11.57;9.90;;;;;;;32.96;81.41;100827.84;5115460;28;20031;-75
2023/09/09 07:32:53;;;;;;;11.98;10.35;;;;;;;33.29;80.21;100815.91;5116394;28;20107;-74
2023/09/09 07:35:20;;;;;;;10.48;9.45;;;;;;;33.53;77.85;100833.06;5115043;28;20462;-73
2023/09/09 07:37:47;;;;;;;13.95;9.57;;;;;;;33.39;79.06;100831.38;5115526;28;20104;-74
2023/09/09 07:40:13;;;;;;;12.70;9.98;;;;;;;33.70;80.86;100831.91;5115098;28;20380;-75
2023/09/09 07:42:40;;;;;;;11.60;9.52;;;;;;;33.77;75.64;100830.13;5114868;28;20048;-77
2023/09/09 07:45:07;;;;;;;10.35;8.27;;;;;;;33.82;75.85;100814.88;5113990;28;20031;-76
2023/09/09 07:47:34;;;;;;;12.07;9.05;;;;;;;33.81;75.33;100839.25;5114663;27;20098;-76
2023/09/09 07:50:00;;;;;;;13.43;10.63;;;;;;;33.94;74.11;100826.72;5114913;28;20053;-75
2023/09/09 07:52:33;;;;;;;12.15;9.13;;;;;;;34.39;77.02;100823.50;5114051;28;20110;-74
2023/09/09 07:55:00;;;;;;;11.52;9.23;;;;;;;34.47;69.18;100836.63;5114066;28;20027;-75
2023/09/09 07:57:27;;;;;;;10.85;9.68;;;;;;;34.25;75.40;100841.25;5114882;28;20027;-76
2023/09/09 07:59:57;;;;;;;10.30;8.65;;;;;;;34.43;70.84;100838.59;5114524;28;20023;-76
2023/09/09 08:02:23;;;;;;;15.25;8.25;;;;;;;34.66;75.77;100841.50;5113839;28;20082;-75
2023/09/09 08:04:49;;;;;;;11.23;8.55;;;;;;;34.97;75.01;100841.03;5113699;28;20529;-76
2023/09/09 08:07:17;;;;;;;8.70;7.78;;;;;;;35.07;73.54;100824.59;5114782;28;20023;-76
2023/09/09 08:09:44;;;;;;;12.13;9.52;;;;;;;35.19;71.77;100836.41;5113255;28;20039;-75
2023/09/09 08:12:10;;;;;;;10.70;8.50;;;;;;;35.23;71.36;100833.66;5113761;28;20039;-74
2023/09/09 08:14:40;;;;;;;11.80;8.35;;;;;;;35.24;70.17;100835.19;5096707;28;20099;-75
2023/09/09 08:17:07;;;;;;;12.02;8.30;;;;;;;35.37;69.60;100828.50;5113424;28;20084;-78
2023/09/09 08:19:33;;;;;;;9.55;8.55;;;;;;;35.48;66.79;100832.81;5114744;28;20379;-77
2023/09/09 08:21:59;;;;;;;11.50;8.15;;;;;;;35.45;68.96;100825.22;5113648;28;20046;-78
2023/09/09 08:24:28;;;;;;;12.68;7.95;;;;;;;35.48;69.75;100821.69;5113580;28;20396;-81
2023/09/09 08:26:54;;;;;;;15.52;8.35;;;;;;;35.53;65.89;100813.75;5113522;28;20373;-81
2023/09/09 08:29:20;;;;;;;10.68;8.27;;;;;;;35.55;66.85;100811.66;5115186;28;20105;-79
2023/09/09 08:31:47;;;;;;;11.50;7.35;;;;;;;35.64;62.26;100806.97;5114156;28;20120;-83
2023/09/09 08:34:15;;;;;;;10.07;7.63;;;;;;;35.51;64.75;100811.44;5096564;28;20035;-88
2023/09/09 08:36:43;;;;;;;9.90;7.65;;;;;;;35.37;64.14;100800.97;5114410;28;20023;-86
2023/09/09 08:39:11;;;;;;;15.18;8.15;;;;;;;35.27;64.37;100810.09;5115981;28;20050;-83
2023/09/09 08:42:15;;;;;;;12.05;7.07;;;;;;;35.17;63.81;100821.41;5114252;28;20088;-83
2023/09/09 08:45:17;;;;;;;9.43;7.40;;;;;;;35.15;65.10;100806.47;5114381;28;20043;-84
2023/09/09 08:47:58;;;;;;;10.18;7.53;;;;;;;34.96;61.67;100819.47;5114803;28;20059;-78
2023/09/09 08:50:25;;;;;;;12.68;8.57;;;;;;;34.89;67.68;100811.66;5113078;28;20051;-78
2023/09/09 08:52:55;;;;;;;10.95;7.40;;;;;;;34.95;64.99;100814.97;5079201;28;20032;-75
2023/09/09 08:55:21;;;;;;;9.52;7.45;;;;;;;34.94;66.26;100812.66;5114359;28;20118;-80
2023/09/09 08:57:47;;;;;;;10.25;6.70;;;;;;;34.92;68.53;100810.31;5110656;28;20476;-78
2023/09/09 09:00:16;;;;;;;10.00;6.82;;;;;;;34.86;64.04;100803.28;5112046;28;20055;-82
2023/09/09 09:02:43;;;;;;;10.82;7.45;;;;;;;34.71;67.47;100801.66;5112002;28;20036;-80
2023/09/09 09:05:10;;;;;;;10.95;8.65;;;;;;;34.49;67.01;100798.16;5113495;28;20027;-78
2023/09/09 09:07:35;;;;;;;9.98;8.18;;;;;;;34.38;67.63;100804.13;5111559;28;20038;-81
2023/09/09 09:10:09;;;;;;;13.32;7.57;;;;;;;34.06;73.59;100794.06;5113542;28;20077;-77
2023/09/09 09:12:36;;;;;;;9.90;8.02;;;;;;;33.89;71.62;100793.06;5113437;28;20040;-79
2023/09/09 09:15:03;;;;;;;10.52;7.75;;;;;;;33.67;72.54;100794.66;5116236;28;20036;-78
2023/09/09 09:17:31;;;;;;;22.10;7.75;;;;;;;33.32;71.18;100793.91;5116604;28;20039;-80
2023/09/09 09:19:57;;;;;;;8.13;7.18;;;;;;;33.20;73.98;100790.94;5117792;28;20084;-76
2023/09/09 09:22:24;;;;;;;8.25;7.38;;;;;;;32.96;69.64;100781.22;5116756;28;20039;-78
2023/09/09 09:24:49;;;;;;;11.70;7.75;;;;;;;32.96;71.52;100789.34;5118048;28;20024;-84
2023/09/09 09:27:16;;;;;;;14.88;7.97;;;;;;;32.96;73.66;100790.13;5115939;28;20044;-79
2023/09/09 09:29:50;;;;;;;11.77;8.35;;;;;;;32.81;72.67;100787.66;5098549;28;20032;-77
2023/09/09 09:32:39;;;;;;;9.55;7.45;;;;;;;32.24;71.41;100798.63;5116607;27;20070;-78
2023/09/09 09:35:35;;;;;;;10.93;7.28;;;;;;;32.13;76.98;100792.63;5098473;28;20084;-78
2023/09/09 09:38:09;;;;;;;10.48;7.00;;;;;;;31.94;75.31;100766.97;5117138;27;20071;-80
2023/09/09 09:40:36;;;;;;;10.68;7.32;;;;;;;31.83;74.09;100789.13;5116726;28;20487;-80
2023/09/09 09:43:16;;;;;;;9.68;6.97;;;;;;;31.78;78.40;100762.88;5116236;28;20062;-78
2023/09/09 09:45:41;;;;;;;9.60;7.18;;;;;;;31.99;77.58;100780.63;5116936;28;20031;-81
2023/09/09 09:48:07;;;;;;;8.90;6.97;;;;;;;31.79;76.38;100768.16;5117533;28;20039;-82
2023/09/09 09:50:34;;;;;;;8.30;6.65;;;;;;;31.75;75.24;100782.66;5117512;28;20032;-82
2023/09/09 09:53:08;;;;;;;13.18;7.32;;;;;;;31.29;76.38;100779.34;5116191;28;20046;-82
2023/09/09 09:55:36;;;;;;;7.72;5.80;;;;;;;31.00;72.91;100785.34;5097575;28;20480;-81
2023/09/09 09:58:06;;;;;;;11.82;6.57;;;;;;;30.89;74.37;100777.94;5096903;28;20043;-83
2023/09/09 10:00:32;;;;;;;7.63;6.63;;;;;;;30.85;72.57;100780.59;5094513;28;20027;-81
2023/09/09 10:03:13;;;;;;;10.68;6.82;;;;;;;30.92;77.32;100775.91;5094354;28;20032;-76
2023/09/09 10:05:43;;;;;;;8.90;6.88;;;;;;;30.75;75.03;100779.06;5093652;28;20442;-75
2023/09/09 10:08:33;;;;;;;10.35;6.88;;;;;;;30.87;77.65;100774.81;5093876;28;20028;-77
2023/09/09 10:11:20;;;;;;;10.00;7.32;;;;;;;30.94;77.67;100773.09;5094716;28;20137;-77
2023/09/09 10:13:50;;;;;;;10.45;6.65;;;;;;;31.05;76.79;100768.72;5095114;28;20020;-76
2023/09/09 10:16:17;;;;;;;8.75;6.30;;;;;;;31.03;75.79;100769.31;5095010;28;20457;-78
2023/09/09 10:18:52;;;;;;;8.18;6.15;;;;;;;30.94;78.10;100773.88;5095179;28;20028;-77
2023/09/09 10:21:18;;;;;;;12.02;7.18;;;;;;;30.65;79.47;100751.75;5095245;28;20028;-77
2023/09/09 10:24:05;;;;;;;11.20;6.88;;;;;;;30.83;81.33;100767.84;5093798;28;20115;-78
2023/09/09 10:26:52;;;;;;;11.32;6.82;;;;;;;30.82;78.95;100758.22;5093708;28;20024;-78
2023/09/09 10:29:19;;;;;;;7.32;6.45;;;;;;;30.71;79.33;100758.88;5095003;28;20088;-75
2023/09/09 10:31:46;;;;;;;10.77;6.68;;;;;;;30.55;79.15;100763.56;5093832;28;20020;-77
2023/09/09 10:34:37;;;;;;;10.00;6.53;;;;;;;30.39;79.22;100751.31;5093636;28;20059;-75
2023/09/09 10:37:14;;;;;;;22.48;7.55;;;;;;;30.19;80.07;100766.72;5093500;28;20032;-77
2023/09/09 10:39:40;;;;;;;7.70;6.50;;;;;;;29.83;80.81;100711.63;5077440;28;20039;-78
2023/09/09 10:42:07;;;;;;;10.93;7.25;;;;;;;29.95;82.59;100757.56;5077414;28;20055;-75
2023/09/09 10:44:32;;;;;;;11.15;8.00;;;;;;;29.91;84.65;100748.41;5094512;28;20047;-76
2023/09/09 10:46:59;;;;;;;9.50;7.07;;;;;;;29.79;85.58;100744.50;5095907;28;20066;-77
2023/09/09 10:49:30;;;;;;;8.63;7.07;;;;;;;29.67;86.72;100732.56;5094916;28;20052;-77
2023/09/09 10:51:56;;;;;;;10.57;6.47;;;;;;;29.68;84.73;100742.94;5095830;28;20052;-77
2023/09/09 10:54:24;;;;;;;8.98;7.05;;;;;;;29.55;85.33;100742.59;5077595;28;20063;-77
2023/09/09 10:57:10;;;;;;;12.40;7.32;;;;;;;29.50;87.54;100738.56;5094366;28;20078;-75
2023/09/09 10:59:36;;;;;;;10.95;7.03;;;;;;;29.36;90.39;100739.63;5092152;28;20032;-78
2023/09/09 11:02:24;;;;;;;9.52;7.70;;;;;;;29.37;87.31;100744.13;5095365;28;20020;-76
2023/09/09 11:05:13;;;;;;;15.35;7.10;;;;;;;29.27;91.08;100753.72;5094569;28;20064;-74
2023/09/09 11:07:41;;;;;;;8.23;7.07;;;;;;;29.09;89.63;100748.50;5095501;28;20056;-77
2023/09/09 11:10:07;;;;;;;9.75;7.03;;;;;;;29.07;89.56;100740.31;5094108;28;20039;-76
2023/09/09 11:12:33;;;;;;;13.68;7.40;;;;;;;29.04;90.00;100744.47;5095579;28;20028;-77
2023/09/09 11:15:09;;;;;;;30.63;7.75;;;;;;;28.91;89.78;100753.69;5094247;28;20047;-77